»·PEaware :: QXE2063 KSEA-KPDX

QXE2063 :: KSEA-KPDX

FLIGHT INFORMATION

Flight Status: Arrived
Operator:
Horizon Air
More flights by this operator :: More flights under this callsign
Pilot: Aaron T. (8357)
Aircraft: DEHAVILLAND DASH 8 400
(DH8D)
More flights by this aircraft type
Origin: KSEA Seattle-Tacoma Intl
United States
Destination: KPDX Portland Intl
United States
More flights between these airports :: More routes between these airports
Route: SEA BUWZO KRATR2
File this flight plan on PilotEdge
Remarks: RMK / SIMBRIEF
Altitude:
(Current/Filed)
17,000ft
Speed:
(Current/Filed)
322kts
Departed: 14-Jun-19 07:32 PM
Arrived: 14-Jun-19 08:04 PM
Distance/Time
Traveled:
112nm/0:32
Distance/Time
To Go:
Arrived

Flight Plot

Page will automatically refresh every two minutes.


Map Options




Map Legend


Flown Route
Filed Route
Departure Airport
Arrival Airport
Navaid (VOR, NDB)
Fix

Horizontal Profiles

Position Reports

Time Latitude Longitude Heading Altitude Ground
Speed
14-Jun-19 19:18 47.443587 -122.304744 37 440ft 0kts
14-Jun-19 19:19 47.443587 -122.304744 37 440ft 0kts
14-Jun-19 19:20 47.443587 -122.304743 37 440ft 0kts
14-Jun-19 19:21 47.443588 -122.304743 37 440ft 0kts
14-Jun-19 19:22 47.443588 -122.304743 37 440ft 0kts
14-Jun-19 19:23 47.443588 -122.304743 37 440ft 0kts
14-Jun-19 19:24 47.443283 -122.304907 330 440ft 2kts
14-Jun-19 19:25 47.443221 -122.304569 270 440ft 0kts
14-Jun-19 19:26 47.443221 -122.304569 270 440ft 0kts
14-Jun-19 19:27 47.445125 -122.306347 359 440ft 22kts
14-Jun-19 19:28 47.453076 -122.306360 358 440ft 33kts
14-Jun-19 19:29 47.456324 -122.306249 359 441ft 23kts
14-Jun-19 19:30 47.461212 -122.306202 0 440ft 29kts
14-Jun-19 19:31 47.461473 -122.307802 181 440ft 44kts
14-Jun-19 19:32 47.426112 -122.306590 179 1883ft 155kts
14-Jun-19 19:33 47.373792 -122.308311 181 3699ft 212kts
14-Jun-19 19:34 47.319311 -122.311939 178 5688ft 226kts
14-Jun-19 19:35 47.261181 -122.312192 177 7755ft 233kts
14-Jun-19 19:36 47.197014 -122.311573 177 9673ft 237kts
14-Jun-19 19:38 47.131371 -122.310560 178 11708ft 234kts
14-Jun-19 19:39 47.064735 -122.309828 179 13588ft 241kts
14-Jun-19 19:40 46.996292 -122.309694 179 15311ft 246kts
14-Jun-19 19:41 46.926880 -122.309623 179 16794ft 253kts
14-Jun-19 19:42 46.851132 -122.309751 179 17002ft 291kts
14-Jun-19 19:43 46.768419 -122.309712 179 17004ft 315kts
14-Jun-19 19:44 46.678433 -122.309739 179 17002ft 327kts
14-Jun-19 19:45 46.586083 -122.309736 179 16994ft 334kts
14-Jun-19 19:46 46.492350 -122.309703 179 16989ft 337kts
14-Jun-19 19:47 46.398182 -122.309668 179 16890ft 340kts
14-Jun-19 19:48 46.301667 -122.309479 179 15265ft 350kts
14-Jun-19 19:49 46.209477 -122.334621 202 13669ft 336kts
14-Jun-19 19:50 46.126099 -122.382613 202 12077ft 312kts
14-Jun-19 19:51 46.048958 -122.425112 201 10485ft 288kts
14-Jun-19 19:52 45.978197 -122.463539 199 8919ft 273kts
14-Jun-19 19:53 45.907558 -122.480186 168 7343ft 259kts
14-Jun-19 19:54 45.867980 -122.469220 166 6556ft 251kts
14-Jun-19 19:54 45.816025 -122.452727 163 5883ft 223kts
14-Jun-19 19:56 45.746914 -122.430046 163 5855ft 221kts
14-Jun-19 19:57 45.690621 -122.412113 163 5081ft 181kts
14-Jun-19 19:57 45.648830 -122.403021 172 4429ft 184kts
14-Jun-19 19:59 45.595538 -122.417507 196 3438ft 172kts
14-Jun-19 20:00 45.555202 -122.451474 216 2311ft 157kts
14-Jun-19 20:00 45.553841 -122.496595 308 1436ft 152kts
14-Jun-19 20:01 45.574851 -122.544425 301 443ft 137kts
14-Jun-19 20:03 45.592020 -122.588493 299 37ft 49kts
14-Jun-19 20:03 45.592641 -122.592283 267 37ft 12kts
14-Jun-19 20:04 45.592832 -122.597508 223 37ft 13kts
14-Jun-19 20:05 45.590520 -122.601496 209 37ft 13kts
14-Jun-19 20:06 45.589259 -122.600928 118 37ft 4kts
14-Jun-19 20:07 45.586631 -122.594336 128 37ft 19kts
14-Jun-19 20:08 45.585975 -122.591600 47 37ft 0kts
14-Jun-19 20:09 45.585983 -122.591588 47 37ft 0kts
14-Jun-19 20:10 45.585983 -122.591588 47 37ft 0kts

Navigation Log

Ident Type
Flight plan parsing failed, navigation log unavailable